KLSF/LSF METAR and TAF weather

Enter ICAO airport designator
Station Type Date Time Source
KLSF METAR 2019/06/16 04:56 UTC NOAA

KLSF 160456Z AUTO 00000KT 10SM CLR 21/21 A3004 RMK AO2 SLP176 T02080208 403210152 $


Station Type Date Time Source
KLSF Decoded METAR 2019/06/16 04:56 UTC NOAA

Fort Benning, GA, United States (KLSF) 32-20N 084-50W 130M
Jun 16, 2019 - 12:56 AM EDT / 2019.06.16 0456 UTC
Wind: Calm:0
Visibility: 10 mile(s):0
Sky conditions: clear
Temperature: 69.4 F (20.8 C)
Dew Point: 69.4 F (20.8 C)
Relative Humidity: 100%
Pressure (altimeter): 30.04 in. Hg (1017 hPa)
ob: KLSF 160456Z AUTO 00000KT 10SM CLR 21/21 A3004 RMK AO2 SLP176 T02080208 403210152
cycle: 5

Station Type Date Time Source
KLSF TAF 2019/06/15 01:35 UTC NOAA

TAF KLSF 150100Z 1501/1607 VRB06KT 9999 FEW050 QNH3000INS
BECMG 1507/1508 VRB06KT 4800 BR SCT020 QNH2999INS
TEMPO 1508/1512 1600 BR
BECMG 1513/1514 VRB06KT 9999 NSW SCT050 QNH2999INS TX31/1520Z TN13/1511Z LAST NO
AMDS AFT 1503 NEXT 1701

Example: see airport list